Time;durP1;ratioP1;P1;durP2;ratioP2;P2;SDS_P1;SDS_P2;PMS_P1;PMS_P2;Temp;Humidity;BMP_temperature;BMP_pressure;BME280_temperature;BME280_humidity;BME280_pressure;Samples;Min_cycle;Max_cycle;Signal;HPM_P1;HPM_P2
2023/05/23 08:27:22;;;;;;;;;18.00;17.00;;;;;;;;6290846;22;46658;-72
2023/05/23 08:29:47;;;;;;;;;21.25;20.75;;;;;;;;6373974;22;45234;-72
2023/05/23 08:32:12;;;;;;;;;19.75;17.75;;;;;;;;6372645;22;45209;-73
2023/05/23 08:34:39;;;;;;;;;26.00;23.00;;;;;;;;6372357;22;45559;-74
2023/05/23 08:37:04;;;;;;;;;22.25;20.00;;;;;;;;6343342;22;45668;-75
2023/05/23 08:39:30;;;;;;;;;23.25;21.25;;;;;;;;6370779;22;45305;-74
2023/05/23 08:41:55;;;;;;;;;30.50;26.00;;;;;;;;6371498;22;45326;-74
2023/05/23 08:44:20;;;;;;;;;34.50;30.50;;;;;;;;6370231;22;45294;-73
2023/05/23 08:46:48;;;;;;;;;37.50;31.00;;;;;;;;6371831;22;45273;-74
2023/05/23 08:49:16;;;;;;;;;33.25;27.75;;;;;;;;6371583;22;46255;-74
2023/05/23 08:51:42;;;;;;;;;33.00;29.25;;;;;;;;6370198;22;45210;-73
2023/05/23 08:54:09;;;;;;;;;28.50;26.75;;;;;;;;6372116;22;45229;-74
2023/05/23 08:56:35;;;;;;;;;32.50;27.25;;;;;;;;6372471;22;45383;-74
2023/05/23 08:59:01;;;;;;;;;28.00;25.25;;;;;;;;6374913;22;45459;-73
2023/05/23 09:01:26;;;;;;;;;29.50;24.00;;;;;;;;6375947;22;45237;-74
2023/05/23 09:03:51;;;;;;;;;21.25;20.00;;;;;;;;6346514;22;45278;-74
2023/05/23 09:06:19;;;;;;;;;28.75;22.25;;;;;;;;6374204;22;45316;-75
2023/05/23 09:08:45;;;;;;;;;22.00;20.75;;;;;;;;6371612;22;45287;-75
2023/05/23 09:11:11;;;;;;;;;31.75;26.25;;;;;;;;6371498;22;45231;-74
2023/05/23 09:13:38;;;;;;;;;30.25;27.50;;;;;;;;6372793;22;45176;-75
2023/05/23 09:16:05;;;;;;;;;28.25;25.25;;;;;;;;6372788;22;45216;-75
2023/05/23 09:18:35;;;;;;;;;26.25;25.50;;;;;;;;6343945;22;46126;-74
2023/05/23 09:21:01;;;;;;;;;28.25;25.50;;;;;;;;6344041;22;44608;-76
2023/05/23 09:23:28;;;;;;;;;25.25;25.00;;;;;;;;6343964;22;45165;-75
2023/05/23 09:25:53;;;;;;;;;32.00;25.25;;;;;;;;6373016;22;45313;-75
2023/05/23 09:28:19;;;;;;;;;23.00;21.50;;;;;;;;6372324;22;46098;-76
2023/05/23 09:30:44;;;;;;;;;27.25;25.00;;;;;;;;6371993;22;45171;-76
2023/05/23 09:33:12;;;;;;;;;23.75;22.00;;;;;;;;6373419;22;45218;-75
2023/05/23 09:35:42;;;;;;;;;23.50;22.75;;;;;;;;6373425;22;45230;-75
2023/05/23 09:38:08;;;;;;;;;25.00;22.50;;;;;;;;6372757;22;46028;-75
2023/05/23 09:40:33;;;;;;;;;23.67;22.00;;;;;;;;6373963;22;45179;-76
2023/05/23 09:43:02;;;;;;;;;32.00;26.50;;;;;;;;6375102;22;45142;-75
2023/05/23 09:45:31;;;;;;;;;27.00;25.00;;;;;;;;6376571;22;45269;-75
2023/05/23 09:47:57;;;;;;;;;29.75;27.00;;;;;;;;6375340;22;46076;-75
2023/05/23 09:50:22;;;;;;;;;26.33;22.00;;;;;;;;6377646;22;45205;-76
2023/05/23 09:52:48;;;;;;;;;26.00;23.67;;;;;;;;6375545;22;45212;-75
2023/05/23 09:55:13;;;;;;;;;27.00;23.67;;;;;;;;6373013;22;45167;-75
2023/05/23 09:57:39;;;;;;;;;19.00;15.67;;;;;;;;6372430;22;45175;-75
2023/05/23 10:00:05;;;;;;;;;30.50;25.50;;;;;;;;6372972;22;45292;-76
2023/05/23 10:02:49;;;;;;;;;23.33;22.33;;;;;;;;6372541;22;45301;-76
2023/05/23 10:05:22;;;;;;;;;20.67;19.00;;;;;;;;6372656;22;46058;-75
2023/05/23 10:07:47;;;;;;;;;24.67;21.33;;;;;;;;6372552;22;45151;-76
2023/05/23 10:10:14;;;;;;;;;25.33;23.67;;;;;;;;6373073;22;45250;-76
2023/05/23 10:12:43;;;;;;;;;25.00;22.33;;;;;;;;6343462;22;45187;-76
2023/05/23 10:15:08;;;;;;;;;24.33;22.33;;;;;;;;6372935;22;45488;-76
2023/05/23 10:17:33;;;;;;;;;30.75;26.50;;;;;;;;6372633;22;45302;-76
2023/05/23 10:20:19;;;;;;;;;25.20;23.00;;;;;;;;6373567;22;45436;-76
2023/05/23 10:22:45;;;;;;;;;23.50;21.25;;;;;;;;6371395;22;45388;-76
2023/05/23 10:25:10;;;;;;;;;30.75;27.00;;;;;;;;6373342;22;45209;-75
2023/05/23 10:27:36;;;;;;;;;27.67;24.33;;;;;;;;6374164;22;45132;-75
2023/05/23 10:30:02;;;;;;;;;20.75;15.00;;;;;;;;6375373;22;45143;-75
2023/05/23 10:32:28;;;;;;;;;25.50;24.25;;;;;;;;6375859;22;45199;-74
2023/05/23 10:35:08;;;;;;;;;25.25;23.00;;;;;;;;6374392;22;45226;-74
2023/05/23 10:37:57;;;;;;;;;25.67;22.33;;;;;;;;6373352;22;45385;-74
2023/05/23 10:40:48;;;;;;;;;29.00;25.00;;;;;;;;6372959;22;45231;-74
2023/05/23 10:43:24;;;;;;;;;23.33;20.00;;;;;;;;6283165;22;45426;-73
2023/05/23 10:45:50;;;;;;;;;22.33;20.33;;;;;;;;6343825;22;47122;-73
2023/05/23 10:48:42;;;;;;;;;19.67;17.33;;;;;;;;6372392;22;45559;-74
2023/05/23 10:51:08;;;;;;;;;22.00;19.67;;;;;;;;6363687;22;45359;-74
2023/05/23 10:53:35;;;;;;;;;22.33;20.00;;;;;;;;6373007;22;45276;-74
2023/05/23 10:56:00;;;;;;;;;18.00;18.00;;;;;;;;6372407;22;45222;-74
2023/05/23 10:58:28;;;;;;;;;22.67;20.67;;;;;;;;6372244;22;45167;-73
2023/05/23 11:00:54;;;;;;;;;22.33;21.67;;;;;;;;6372172;22;45264;-73
2023/05/23 11:03:30;;;;;;;;;22.33;18.33;;;;;;;;6372004;22;45333;-74
2023/05/23 11:05:55;;;;;;;;;27.00;21.33;;;;;;;;6372178;22;45397;-73
2023/05/23 11:08:23;;;;;;;;;30.00;25.33;;;;;;;;6372761;22;45347;-74
2023/05/23 11:10:58;;;;;;;;;26.67;23.00;;;;;;;;6373318;22;45258;-75
2023/05/23 11:13:24;;;;;;;;;24.00;18.67;;;;;;;;6373651;22;45300;-73
2023/05/23 11:15:49;;;;;;;;;25.33;21.67;;;;;;;;6373352;22;45285;-74
2023/05/23 11:18:21;;;;;;;;;22.67;20.67;;;;;;;;6345105;22;46926;-75
2023/05/23 11:20:48;;;;;;;;;21.67;21.00;;;;;;;;6374472;22;45293;-75
2023/05/23 11:23:13;;;;;;;;;25.33;21.00;;;;;;;;6374319;22;45222;-74
2023/05/23 11:25:42;;;;;;;;;20.67;20.67;;;;;;;;6372845;22;45176;-75
2023/05/23 11:28:08;;;;;;;;;29.33;22.00;;;;;;;;6371368;22;45447;-75
2023/05/23 11:30:36;;;;;;;;;20.33;18.00;;;;;;;;6372481;22;45231;-74
2023/05/23 11:33:06;;;;;;;;;20.00;19.00;;;;;;;;6371110;22;45254;-73
2023/05/23 11:35:31;;;;;;;;;20.33;19.67;;;;;;;;6370636;22;45235;-74
2023/05/23 11:37:56;;;;;;;;;20.33;17.00;;;;;;;;6372104;22;45241;-75
2023/05/23 11:40:26;;;;;;;;;17.00;17.00;;;;;;;;6372397;22;45165;-75
2023/05/23 11:42:51;;;;;;;;;19.00;16.67;;;;;;;;6372017;22;45313;-75
2023/05/23 11:45:19;;;;;;;;;21.67;18.67;;;;;;;;6372419;22;45199;-74
2023/05/23 11:47:45;;;;;;;;;20.67;19.67;;;;;;;;6372197;22;45304;-74
2023/05/23 11:50:10;;;;;;;;;17.67;15.67;;;;;;;;6372191;22;45276;-74
2023/05/23 11:52:35;;;;;;;;;20.33;15.67;;;;;;;;6343565;22;45274;-75
2023/05/23 11:55:00;;;;;;;;;18.33;16.00;;;;;;;;6372847;22;45201;-75
2023/05/23 11:57:26;;;;;;;;;19.00;15.33;;;;;;;;6343895;22;47118;-76
2023/05/23 11:59:51;;;;;;;;;21.00;17.00;;;;;;;;6375543;22;45248;-74
2023/05/23 12:02:16;;;;;;;;;15.00;15.00;;;;;;;;6373064;22;45329;-75
2023/05/23 12:04:41;;;;;;;;;21.00;17.67;;;;;;;;6374510;22;45420;-75
2023/05/23 12:07:07;;;;;;;;;15.33;15.33;;;;;;;;6375765;22;45276;-74
2023/05/23 12:09:40;;;;;;;;;19.00;17.67;;;;;;;;6373072;22;45220;-75
2023/05/23 12:12:05;;;;;;;;;16.67;14.67;;;;;;;;6371845;22;45304;-75
2023/05/23 12:14:32;;;;;;;;;19.33;18.00;;;;;;;;6372355;22;45218;-75
2023/05/23 12:16:58;;;;;;;;;14.67;12.33;;;;;;;;6371924;22;45218;-74
2023/05/23 12:19:23;;;;;;;;;15.67;14.67;;;;;;;;6372142;22;45099;-76
2023/05/23 12:21:48;;;;;;;;;15.67;13.67;;;;;;;;6372357;22;45211;-75
2023/05/23 12:24:16;;;;;;;;;19.67;15.00;;;;;;;;6372429;22;45081;-74
2023/05/23 12:26:48;;;;;;;;;18.67;14.67;;;;;;;;6370735;22;47024;-75
2023/05/23 12:29:13;;;;;;;;;17.67;14.33;;;;;;;;6371675;22;45273;-75
2023/05/23 12:31:39;;;;;;;;;18.33;14.33;;;;;;;;6372194;22;45293;-75
2023/05/23 12:34:04;;;;;;;;;15.67;14.67;;;;;;;;6372566;22;45276;-76
2023/05/23 12:36:33;;;;;;;;;10.67;10.00;;;;;;;;6371634;22;46327;-76
2023/05/23 12:39:04;;;;;;;;;14.33;12.00;;;;;;;;6372052;22;45376;-76
2023/05/23 12:41:31;;;;;;;;;13.33;12.67;;;;;;;;6371610;22;45103;-76
2023/05/23 12:43:56;;;;;;;;;14.33;10.00;;;;;;;;6345549;22;45937;-75
2023/05/23 12:46:22;;;;;;;;;15.67;13.33;;;;;;;;6375410;22;46350;-77
2023/05/23 12:48:47;;;;;;;;;14.00;13.00;;;;;;;;6374132;22;45230;-75
2023/05/23 12:51:13;;;;;;;;;14.67;12.67;;;;;;;;6374447;22;45280;-77
2023/05/23 12:53:39;;;;;;;;;15.00;14.33;;;;;;;;6372270;22;45287;-76
2023/05/23 12:56:04;;;;;;;;;18.00;15.00;;;;;;;;6371532;22;45809;-76
2023/05/23 12:58:29;;;;;;;;;13.67;11.67;;;;;;;;6370997;22;45378;-75
2023/05/23 13:00:55;;;;;;;;;15.00;13.67;;;;;;;;6371406;22;45245;-75
2023/05/23 13:03:20;;;;;;;;;16.67;13.00;;;;;;;;6371771;22;45276;-75
2023/05/23 13:05:45;;;;;;;;;11.25;9.75;;;;;;;;6372005;22;46183;-76
2023/05/23 13:08:11;;;;;;;;;10.00;9.75;;;;;;;;6371945;22;45338;-75
2023/05/23 13:10:37;;;;;;;;;11.50;10.25;;;;;;;;6371823;22;45162;-76
2023/05/23 13:13:03;;;;;;;;;10.50;8.75;;;;;;;;6369918;22;45147;-75
2023/05/23 13:15:28;;;;;;;;;9.25;9.00;;;;;;;;6371320;22;45287;-76
2023/05/23 13:17:53;;;;;;;;;11.00;9.50;;;;;;;;6371338;22;45162;-76
2023/05/23 13:20:18;;;;;;;;;9.75;9.00;;;;;;;;6372442;22;45193;-75
2023/05/23 13:22:44;;;;;;;;;13.00;10.25;;;;;;;;6371482;22;45217;-75
2023/05/23 13:25:09;;;;;;;;;15.75;11.75;;;;;;;;6369578;22;45162;-75
2023/05/23 13:27:34;;;;;;;;;17.25;9.75;;;;;;;;6371501;22;45243;-75
2023/05/23 13:30:00;;;;;;;;;15.50;11.00;;;;;;;;6376838;22;45261;-76
2023/05/23 13:32:25;;;;;;;;;13.25;12.00;;;;;;;;6376590;22;45158;-76
2023/05/23 13:34:50;;;;;;;;;8.50;7.00;;;;;;;;6376268;22;45230;-75
2023/05/23 13:37:15;;;;;;;;;8.25;7.00;;;;;;;;6376728;22;45199;-75
2023/05/23 13:39:40;;;;;;;;;13.00;12.50;;;;;;;;6374185;22;45532;-77
2023/05/23 13:42:06;;;;;;;;;15.00;13.00;;;;;;;;6371328;22;45323;-75
2023/05/23 13:44:33;;;;;;;;;14.75;12.25;;;;;;;;6370548;22;45379;-75
2023/05/23 13:47:08;;;;;;;;;14.00;12.75;;;;;;;;6371467;22;45304;-75
2023/05/23 13:49:33;;;;;;;;;14.00;12.50;;;;;;;;6371471;22;45218;-75
2023/05/23 13:51:58;;;;;;;;;10.75;9.25;;;;;;;;6371568;22;45327;-75
2023/05/23 13:54:23;;;;;;;;;12.25;11.75;;;;;;;;6371362;22;45234;-72
2023/05/23 13:56:49;;;;;;;;;13.50;12.75;;;;;;;;6370693;22;45361;-76
2023/05/23 13:59:19;;;;;;;;;10.50;9.50;;;;;;;;6372634;22;45366;-73
2023/05/23 14:01:45;;;;;;;;;16.75;12.50;;;;;;;;6372688;22;45270;-75
2023/05/23 14:04:10;;;;;;;;;13.75;12.25;;;;;;;;6373156;22;45344;-74
2023/05/23 14:06:35;;;;;;;;;13.00;13.00;;;;;;;;6344294;22;45235;-75
2023/05/23 14:09:01;;;;;;;;;13.25;13.25;;;;;;;;6373733;22;45104;-75
2023/05/23 14:11:27;;;;;;;;;14.25;13.50;;;;;;;;6371242;22;45310;-74
2023/05/23 14:13:52;;;;;;;;;11.50;9.00;;;;;;;;6374466;22;45354;-74
2023/05/23 14:16:17;;;;;;;;;7.25;6.00;;;;;;;;6377285;22;45231;-75
2023/05/23 14:18:43;;;;;;;;;11.50;11.25;;;;;;;;6377420;22;45337;-74
2023/05/23 14:21:09;;;;;;;;;12.50;10.25;;;;;;;;6376838;22;45268;-74
2023/05/23 14:23:34;;;;;;;;;12.00;10.00;;;;;;;;6373597;22;46053;-75
2023/05/23 14:25:59;;;;;;;;;11.50;11.00;;;;;;;;6372568;22;45177;-75
2023/05/23 14:28:24;;;;;;;;;11.33;11.33;;;;;;;;6372431;22;45311;-74
2023/05/23 14:30:50;;;;;;;;;14.00;12.00;;;;;;;;6373176;22;45259;-74
2023/05/23 14:33:15;;;;;;;;;12.00;11.00;;;;;;;;6372732;22;45632;-75
2023/05/23 14:35:41;;;;;;;;;9.67;9.67;;;;;;;;6372955;22;46005;-75
2023/05/23 14:38:06;;;;;;;;;10.33;9.00;;;;;;;;6371773;22;45222;-75
2023/05/23 14:40:31;;;;;;;;;10.50;10.25;;;;;;;;6373080;22;45286;-74
2023/05/23 14:42:57;;;;;;;;;11.00;10.25;;;;;;;;6372200;22;45257;-74
2023/05/23 14:45:22;;;;;;;;;12.00;10.67;;;;;;;;6373040;22;45179;-73
2023/05/23 14:47:47;;;;;;;;;13.33;12.00;;;;;;;;6372363;22;45305;-75
2023/05/23 14:50:12;;;;;;;;;12.00;9.33;;;;;;;;6372836;22;45176;-75
2023/05/23 14:52:37;;;;;;;;;11.50;11.25;;;;;;;;6372325;22;45480;-74
2023/05/23 14:55:03;;;;;;;;;12.25;9.25;;;;;;;;6374109;22;45125;-76
2023/05/23 14:57:28;;;;;;;;;16.75;12.75;;;;;;;;6373066;22;45144;-75
2023/05/23 14:59:53;;;;;;;;;14.00;11.25;;;;;;;;6375558;22;45442;-75
2023/05/23 15:02:18;;;;;;;;;10.00;10.00;;;;;;;;6376718;22;45265;-73
2023/05/23 15:04:44;;;;;;;;;18.00;15.67;;;;;;;;6377354;22;45237;-76
2023/05/23 15:07:09;;;;;;;;;11.75;9.00;;;;;;;;6374689;22;45133;-73
2023/05/23 15:09:35;;;;;;;;;8.00;6.75;;;;;;;;6373668;22;45190;-74
2023/05/23 15:12:00;;;;;;;;;9.75;7.00;;;;;;;;6371267;22;46084;-75
2023/05/23 15:14:28;;;;;;;;;9.67;9.67;;;;;;;;6373307;22;45202;-74
2023/05/23 15:16:54;;;;;;;;;12.33;9.33;;;;;;;;6372165;22;45253;-75
2023/05/23 15:19:19;;;;;;;;;9.00;7.00;;;;;;;;6372793;22;45230;-74
2023/05/23 15:21:44;;;;;;;;;9.50;8.00;;;;;;;;6372811;22;45280;-75
2023/05/23 15:24:10;;;;;;;;;8.50;8.50;;;;;;;;6373229;22;45210;-74
2023/05/23 15:26:35;;;;;;;;;9.50;9.50;;;;;;;;6365160;22;45755;-74
2023/05/23 15:29:00;;;;;;;;;9.00;9.00;;;;;;;;6370873;22;45305;-74
2023/05/23 15:31:25;;;;;;;;;10.00;10.00;;;;;;;;6371347;22;46039;-75
2023/05/23 15:33:50;;;;;;;;;11.50;9.50;;;;;;;;6372383;22;45178;-74
2023/05/23 15:36:16;;;;;;;;;13.00;12.67;;;;;;;;6371912;22;45356;-75
2023/05/23 15:38:42;;;;;;;;;11.67;8.67;;;;;;;;6371466;22;45213;-75
2023/05/23 15:41:07;;;;;;;;;6.00;6.00;;;;;;;;6371242;22;46049;-74
2023/05/23 15:43:34;;;;;;;;;11.00;8.00;;;;;;;;6346882;22;45275;-74
2023/05/23 15:45:59;;;;;;;;;11.00;8.33;;;;;;;;6376254;22;45217;-75
2023/05/23 15:48:24;;;;;;;;;7.33;7.33;;;;;;;;6375114;22;45222;-73
2023/05/23 15:50:50;;;;;;;;;7.00;6.00;;;;;;;;6373740;22;46075;-75
2023/05/23 15:53:15;;;;;;;;;6.00;6.00;;;;;;;;6373614;22;45328;-73
2023/05/23 15:55:40;;;;;;;;;6.67;6.67;;;;;;;;6371647;22;45539;-75
2023/05/23 15:58:05;;;;;;;;;9.00;6.00;;;;;;;;6369815;22;45254;-75
2023/05/23 16:00:30;;;;;;;;;4.67;4.67;;;;;;;;6370791;22;45333;-75
2023/05/23 16:02:56;;;;;;;;;7.00;5.67;;;;;;;;6370149;22;45375;-74
2023/05/23 16:05:21;;;;;;;;;8.33;5.00;;;;;;;;6371880;22;45509;-74
2023/05/23 16:07:46;;;;;;;;;5.00;5.00;;;;;;;;6370509;22;45306;-73
2023/05/23 16:10:13;;;;;;;;;8.00;6.67;;;;;;;;6371677;22;45402;-74
2023/05/23 16:12:38;;;;;;;;;5.00;5.00;;;;;;;;6371099;22;45202;-73
2023/05/23 16:15:03;;;;;;;;;6.00;6.00;;;;;;;;6371406;22;45424;-73
2023/05/23 16:17:28;;;;;;;;;5.00;5.00;;;;;;;;6370458;22;45187;-73
2023/05/23 16:19:54;;;;;;;;;6.00;6.00;;;;;;;;6370988;22;46190;-74
2023/05/23 16:22:19;;;;;;;;;3.33;3.00;;;;;;;;6371554;22;45275;-74
2023/05/23 16:24:44;;;;;;;;;7.33;6.33;;;;;;;;6370939;22;45267;-73
2023/05/23 16:27:09;;;;;;;;;8.00;4.67;;;;;;;;6371857;22;45534;-73
2023/05/23 16:29:35;;;;;;;;;4.00;4.00;;;;;;;;6374424;22;46709;-72
2023/05/23 16:32:00;;;;;;;;;8.00;6.00;;;;;;;;6375104;22;45279;-73
2023/05/23 16:34:25;;;;;;;;;6.33;6.33;;;;;;;;6375957;22;45262;-73
2023/05/23 16:36:51;;;;;;;;;4.00;4.00;;;;;;;;6374722;22;44748;-75
2023/05/23 16:39:16;;;;;;;;;8.00;5.00;;;;;;;;6371564;22;45604;-73
2023/05/23 16:41:41;;;;;;;;;8.00;6.33;;;;;;;;6370538;22;45309;-74
2023/05/23 16:44:06;;;;;;;;;5.00;5.00;;;;;;;;6371283;22;45317;-73
2023/05/23 16:46:31;;;;;;;;;4.67;4.67;;;;;;;;6371237;22;45211;-74
2023/05/23 16:48:57;;;;;;;;;6.33;5.33;;;;;;;;6370657;22;46361;-75
2023/05/23 16:51:22;;;;;;;;;9.67;5.67;;;;;;;;6370637;22;45246;-74
2023/05/23 16:53:48;;;;;;;;;7.33;5.67;;;;;;;;6370043;22;45169;-74
2023/05/23 16:56:13;;;;;;;;;7.33;6.00;;;;;;;;6369888;22;45140;-73
2023/05/23 16:58:38;;;;;;;;;10.00;8.00;;;;;;;;6370296;22;45152;-75
2023/05/23 17:01:05;;;;;;;;;8.33;7.67;;;;;;;;6371475;22;45515;-73
2023/05/23 17:03:30;;;;;;;;;8.00;5.33;;;;;;;;6371664;22;45313;-73
2023/05/23 17:05:55;;;;;;;;;9.00;9.00;;;;;;;;6371097;22;45257;-73
2023/05/23 17:08:20;;;;;;;;;8.00;7.00;;;;;;;;6371572;22;46039;-70
2023/05/23 17:10:45;;;;;;;;;7.67;7.67;;;;;;;;6373111;22;45263;-73
2023/05/23 17:13:11;;;;;;;;;5.33;5.00;;;;;;;;6347133;22;44863;-73
2023/05/23 17:15:36;;;;;;;;;7.67;7.00;;;;;;;;6375485;22;45131;-73
2023/05/23 17:18:01;;;;;;;;;7.33;5.67;;;;;;;;6376099;22;46063;-73
2023/05/23 17:20:26;;;;;;;;;8.33;7.33;;;;;;;;6374680;22;45337;-75
2023/05/23 17:22:51;;;;;;;;;8.33;6.67;;;;;;;;6371758;22;45368;-74
2023/05/23 17:25:17;;;;;;;;;6.00;5.00;;;;;;;;6372321;22;45247;-74
2023/05/23 17:27:42;;;;;;;;;3.67;2.00;;;;;;;;6370595;22;45285;-74
2023/05/23 17:30:08;;;;;;;;;11.00;8.00;;;;;;;;6371910;22;45230;-74
2023/05/23 17:32:33;;;;;;;;;12.33;9.00;;;;;;;;6371245;22;45290;-74
2023/05/23 17:34:59;;;;;;;;;8.67;8.67;;;;;;;;6372358;22;45328;-74
2023/05/23 17:37:25;;;;;;;;;11.00;8.00;;;;;;;;6372263;22;45272;-75
2023/05/23 17:39:50;;;;;;;;;10.00;6.00;;;;;;;;6344634;22;45268;-73
2023/05/23 17:42:15;;;;;;;;;9.00;8.00;;;;;;;;6372232;22;45235;-73
2023/05/23 17:44:40;;;;;;;;;10.00;8.67;;;;;;;;6343594;22;46430;-73
2023/05/23 17:47:06;;;;;;;;;11.00;8.00;;;;;;;;6373757;22;45277;-73
2023/05/23 17:49:31;;;;;;;;;9.00;8.00;;;;;;;;6375323;22;45210;-73
2023/05/23 17:51:56;;;;;;;;;12.33;9.33;;;;;;;;6375807;22;45399;-72
2023/05/23 17:54:21;;;;;;;;;6.67;6.00;;;;;;;;6375926;22;45341;-73
2023/05/23 17:56:47;;;;;;;;;7.67;7.67;;;;;;;;6374730;22;45216;-72
2023/05/23 17:59:13;;;;;;;;;9.33;8.00;;;;;;;;6375840;22;44596;-73
2023/05/23 18:01:39;;;;;;;;;8.67;6.00;;;;;;;;6374618;22;45091;-73
2023/05/23 18:04:04;;;;;;;;;11.33;8.00;;;;;;;;6374279;22;45139;-73
2023/05/23 18:06:29;;;;;;;;;9.00;6.67;;;;;;;;6372419;22;45340;-73
2023/05/23 18:08:55;;;;;;;;;9.00;9.00;;;;;;;;6373283;22;45219;-73
2023/05/23 18:11:20;;;;;;;;;10.00;9.00;;;;;;;;6343556;22;45317;-72
2023/05/23 18:13:46;;;;;;;;;10.33;6.00;;;;;;;;6344147;22;46766;-73
2023/05/23 18:16:11;;;;;;;;;8.33;7.00;;;;;;;;6371068;22;46058;-73
2023/05/23 18:18:36;;;;;;;;;6.67;4.33;;;;;;;;6372208;22;45129;-72
2023/05/23 18:21:01;;;;;;;;;11.00;8.33;;;;;;;;6372997;22;45503;-72
2023/05/23 18:23:27;;;;;;;;;6.00;5.00;;;;;;;;6372730;22;45377;-72
2023/05/23 18:25:53;;;;;;;;;4.00;3.33;;;;;;;;6372401;22;45360;-72
2023/05/23 18:28:18;;;;;;;;;10.67;5.33;;;;;;;;6370213;22;45395;-72
2023/05/23 18:30:43;;;;;;;;;7.67;6.33;;;;;;;;6372902;22;45496;-72
2023/05/23 18:33:08;;;;;;;;;11.33;10.33;;;;;;;;6372263;22;45247;-71
2023/05/23 18:35:33;;;;;;;;;9.67;6.00;;;;;;;;6372674;22;45273;-73
2023/05/23 18:37:59;;;;;;;;;5.00;5.00;;;;;;;;6373017;22;45358;-73
2023/05/23 18:40:25;;;;;;;;;11.33;9.00;;;;;;;;6374456;22;45210;-72
2023/05/23 18:42:51;;;;;;;;;8.33;6.00;;;;;;;;6374022;22;45375;-73
2023/05/23 18:45:16;;;;;;;;;11.67;7.67;;;;;;;;6346643;22;46967;-74
2023/05/23 18:47:41;;;;;;;;;9.00;5.00;;;;;;;;6375722;22;45232;-75
2023/05/23 18:50:06;;;;;;;;;7.67;5.00;;;;;;;;6372948;22;45351;-71
2023/05/23 18:52:35;;;;;;;;;5.33;4.00;;;;;;;;6372205;22;45180;-71
2023/05/23 18:55:01;;;;;;;;;6.67;6.67;;;;;;;;6370939;22;45215;-73
2023/05/23 18:57:26;;;;;;;;;5.67;5.33;;;;;;;;6371655;22;45219;-75
2023/05/23 18:59:51;;;;;;;;;5.33;3.00;;;;;;;;6372319;22;45190;-74
2023/05/23 19:02:17;;;;;;;;;6.33;5.67;;;;;;;;6372298;22;45202;-73
2023/05/23 19:04:42;;;;;;;;;9.00;6.00;;;;;;;;6372510;22;46162;-75
2023/05/23 19:07:07;;;;;;;;;6.00;5.00;;;;;;;;6372480;22;45270;-75
2023/05/23 19:09:32;;;;;;;;;8.00;7.00;;;;;;;;6343824;22;45289;-74
2023/05/23 19:11:58;;;;;;;;;8.00;8.00;;;;;;;;6371893;22;45245;-73
2023/05/23 19:14:23;;;;;;;;;8.33;5.00;;;;;;;;6372590;22;45253;-74
2023/05/23 19:16:48;;;;;;;;;7.00;6.00;;;;;;;;6372211;22;45237;-72
2023/05/23 19:19:14;;;;;;;;;8.33;6.00;;;;;;;;6344230;22;45638;-73
2023/05/23 19:21:39;;;;;;;;;8.67;5.67;;;;;;;;6373211;22;45207;-72
2023/05/23 19:24:07;;;;;;;;;5.33;4.33;;;;;;;;6376144;22;45447;-73
2023/05/23 19:26:32;;;;;;;;;5.67;4.00;;;;;;;;6346771;22;45168;-73
2023/05/23 19:28:57;;;;;;;;;5.00;5.00;;;;;;;;6375374;22;45160;-73
2023/05/23 19:31:22;;;;;;;;;5.67;5.00;;;;;;;;6375914;22;45069;-73
2023/05/23 19:33:48;;;;;;;;;6.00;6.00;;;;;;;;6344367;22;46937;-73
2023/05/23 19:36:13;;;;;;;;;5.33;5.33;;;;;;;;6372436;22;45384;-73
2023/05/23 19:38:38;;;;;;;;;5.00;4.33;;;;;;;;6372628;22;45221;-73
2023/05/23 19:41:03;;;;;;;;;11.67;7.33;;;;;;;;6372071;22;45469;-73
2023/05/23 19:43:28;;;;;;;;;8.33;6.00;;;;;;;;6372072;22;45952;-73
2023/05/23 19:45:54;;;;;;;;;6.33;5.00;;;;;;;;6372872;22;45128;-72
2023/05/23 19:48:19;;;;;;;;;7.33;7.33;;;;;;;;6372497;22;45358;-73
2023/05/23 19:50:46;;;;;;;;;7.33;5.33;;;;;;;;6372682;22;45410;-72
2023/05/23 19:53:11;;;;;;;;;9.33;6.33;;;;;;;;6371395;22;46039;-72
2023/05/23 19:55:36;;;;;;;;;8.00;6.00;;;;;;;;6372228;22;45235;-72
2023/05/23 19:58:01;;;;;;;;;6.33;6.00;;;;;;;;6371314;22;45277;-73
2023/05/23 20:00:26;;;;;;;;;7.67;6.00;;;;;;;;6372770;22;45500;-72
2023/05/23 20:02:52;;;;;;;;;12.00;8.00;;;;;;;;6372307;22;45206;-73
2023/05/23 20:05:18;;;;;;;;;5.33;3.67;;;;;;;;6372817;22;45313;-72
2023/05/23 20:07:43;;;;;;;;;6.33;4.67;;;;;;;;6372439;22;45234;-72
2023/05/23 20:10:08;;;;;;;;;11.00;4.00;;;;;;;;6372695;22;45242;-72
2023/05/23 20:12:34;;;;;;;;;8.67;5.67;;;;;;;;6372082;22;45272;-73
2023/05/23 20:14:59;;;;;;;;;4.67;4.67;;;;;;;;6343140;22;45295;-73
2023/05/23 20:17:24;;;;;;;;;8.00;5.67;;;;;;;;6372369;22;45296;-73
2023/05/23 20:19:49;;;;;;;;;7.67;4.33;;;;;;;;6343622;22;47506;-72
2023/05/23 20:22:15;;;;;;;;;6.00;5.00;;;;;;;;6371849;22;45367;-72
2023/05/23 20:24:40;;;;;;;;;6.00;5.00;;;;;;;;6371663;22;45331;-72
2023/05/23 20:27:06;;;;;;;;;5.67;4.00;;;;;;;;6370898;22;45206;-72
2023/05/23 20:29:33;;;;;;;;;3.00;3.00;;;;;;;;6343470;22;45583;-73
2023/05/23 20:31:58;;;;;;;;;5.00;4.67;;;;;;;;6342755;22;46314;-72
2023/05/23 20:34:24;;;;;;;;;5.33;3.33;;;;;;;;6372372;22;45202;-72
2023/05/23 20:36:50;;;;;;;;;7.00;5.00;;;;;;;;6343470;22;45199;-72
2023/05/23 20:39:15;;;;;;;;;4.33;4.00;;;;;;;;6372189;22;45389;-71
2023/05/23 20:41:40;;;;;;;;;5.33;4.33;;;;;;;;6371590;22;46035;-71
2023/05/23 20:44:10;;;;;;;;;4.67;4.67;;;;;;;;6372554;22;45088;-71
2023/05/23 20:46:35;;;;;;;;;7.00;6.00;;;;;;;;6372215;22;45270;-72
2023/05/23 20:49:01;;;;;;;;;4.00;2.00;;;;;;;;6372341;22;45318;-72
2023/05/23 20:51:27;;;;;;;;;7.00;4.00;;;;;;;;6372743;22;45340;-71
2023/05/23 20:53:52;;;;;;;;;5.33;4.00;;;;;;;;6374089;22;45224;-71
2023/05/23 20:56:17;;;;;;;;;4.00;2.00;;;;;;;;6373732;22;45161;-72
2023/05/23 20:58:44;;;;;;;;;9.33;5.00;;;;;;;;6372513;22;45163;-72
2023/05/23 21:01:09;;;;;;;;;4.33;3.00;;;;;;;;6342526;22;46834;-72
2023/05/23 21:03:35;;;;;;;;;3.67;3.00;;;;;;;;6370306;22;45207;-72
2023/05/23 21:06:00;;;;;;;;;7.33;5.00;;;;;;;;6371698;22;45190;-72
2023/05/23 21:08:25;;;;;;;;;4.00;2.00;;;;;;;;6372269;22;45225;-72
2023/05/23 21:10:50;;;;;;;;;4.00;3.00;;;;;;;;6373133;22;45349;-72
2023/05/23 21:13:15;;;;;;;;;3.00;3.00;;;;;;;;6372758;22;45206;-72
2023/05/23 21:15:41;;;;;;;;;6.00;4.00;;;;;;;;6373532;22;45217;-72
2023/05/23 21:18:06;;;;;;;;;11.67;4.33;;;;;;;;6372872;22;45282;-72
2023/05/23 21:20:31;;;;;;;;;9.67;5.00;;;;;;;;6373174;22;46432;-72
2023/05/23 21:22:56;;;;;;;;;4.00;3.00;;;;;;;;6344194;22;45897;-71
2023/05/23 21:25:21;;;;;;;;;6.00;4.67;;;;;;;;6373672;22;45225;-72
2023/05/23 21:27:47;;;;;;;;;4.00;4.00;;;;;;;;6372482;22;45203;-72
2023/05/23 21:30:13;;;;;;;;;6.67;5.00;;;;;;;;6373824;22;46355;-72
2023/05/23 21:32:38;;;;;;;;;6.00;6.00;;;;;;;;6345482;22;45268;-72
2023/05/23 21:35:04;;;;;;;;;5.00;3.00;;;;;;;;6375551;22;45393;-71
